Time;durP1;ratioP1;P1;durP2;ratioP2;P2;SDS_P1;SDS_P2;PMS_P1;PMS_P2;Temp;Humidity;BMP_temperature;BMP_pressure;BME280_temperature;BME280_humidity;BME280_pressure;Samples;Min_cycle;Max_cycle;Signal;HPM_P1;HPM_P2
2022/01/22 00:01:43;;;;;;;2.03;0.95;;;;;;;;;;5033412;28;20053;-44
2022/01/22 00:04:09;;;;;;;3.92;1.20;;;;;;;;;;5032973;28;20512;-46
2022/01/22 00:06:35;;;;;;;2.28;1.00;;;;;;;;;;5031971;28;20396;-43
2022/01/22 00:09:01;;;;;;;3.78;1.23;;;;;;;;;;5033148;28;20032;-44
2022/01/22 00:11:34;;;;;;;3.80;1.00;;;;;;;;;;5033375;28;20033;-45
2022/01/22 00:16:44;;;;;;;2.30;1.23;;;;;;;;;;5033167;28;20222;-46
2022/01/22 00:19:10;;;;;;;1.40;0.88;;;;;;;;;;5032949;28;20594;-43
2022/01/22 00:21:37;;;;;;;2.47;1.30;;;;;;;;;;5033035;28;20034;-44
2022/01/22 00:24:04;;;;;;;1.67;0.88;;;16.00;90.80;;;;;;5032734;28;20037;-44
2022/01/22 00:26:30;;;;;;;4.25;1.02;;;;;;;;;;5033040;28;20025;-45
2022/01/22 00:28:56;;;;;;;2.60;1.27;;;;;;;;;;5032740;28;20087;-45
2022/01/22 00:31:22;;;;;;;1.85;1.05;;;;;;;;;;5032782;28;20419;-45
2022/01/22 00:33:48;;;;;;;3.58;1.15;;;;;;;;;;5032650;28;20026;-45
2022/01/22 00:36:14;;;;;;;3.15;0.80;;;;;;;;;;5032929;28;20071;-46
2022/01/22 00:38:39;;;;;;;6.40;1.25;;;;;;;;;;5032664;28;20376;-45
2022/01/22 00:41:05;;;;;;;2.08;0.95;;;;;;;;;;5032691;28;20134;-46
2022/01/22 00:43:31;;;;;;;2.97;1.42;;;;;;;;;;5032592;28;20022;-45
2022/01/22 00:45:57;;;;;;;2.03;0.93;;;;;;;;;;5032476;28;20423;-46
2022/01/22 00:48:23;;;;;;;2.72;1.10;;;;;;;;;;5032470;28;20103;-45
2022/01/22 00:50:53;;;;;;;3.92;1.00;;;;;;;;;;5032445;28;20029;-46
2022/01/22 00:53:19;;;;;;;1.17;0.90;;;;;;;;;;5032737;28;20422;-45
2022/01/22 00:55:45;;;;;;;3.00;1.17;;;;;;;;;;5032384;28;20026;-45
2022/01/22 00:58:12;;;;;;;2.58;1.15;;;;;;;;;;5032402;28;20399;-45
2022/01/22 01:00:38;;;;;;;1.23;0.73;;;;;;;;;;5032010;28;20028;-45
2022/01/22 01:03:04;;;;;;;4.00;1.30;;;;;;;;;;5032003;28;20128;-46
2022/01/22 01:05:30;;;;;;;2.30;1.00;;;;;;;;;;5032502;28;20124;-44
2022/01/22 01:07:56;;;;;;;3.03;1.45;;;;;;;;;;5032230;28;20029;-45
2022/01/22 01:10:22;;;;;;;3.38;1.17;;;;;;;;;;5032145;28;20030;-45
2022/01/22 01:12:49;;;;;;;2.95;1.08;;;;;;;;;;5032191;28;20431;-46
2022/01/22 01:15:41;;;;;;;2.65;1.20;;;15.80;91.10;;;;;;5032406;28;20029;-45
2022/01/22 01:34:22;;;;;;;1.65;0.60;;;;;;;;;;5032115;28;20040;-45
2022/01/22 01:36:49;;;;;;;1.95;1.10;;;;;;;;;;5032322;28;20030;-45
2022/01/22 01:39:19;;;;;;;1.50;0.90;;;;;;;;;;5031975;28;20554;-46
2022/01/22 01:44:17;;;;;;;2.42;1.00;;;;;;;;;;5032127;28;20039;-45
2022/01/22 01:46:49;;;;;;;2.88;0.80;;;15.70;91.20;;;;;;5031946;28;20029;-46
2022/01/22 01:49:15;;;;;;;2.03;0.73;;;;;;;;;;5031963;28;20030;-45
2022/01/22 01:51:42;;;;;;;2.00;1.00;;;;;;;;;;5031907;28;20065;-45
2022/01/22 01:59:25;;;;;;;1.27;0.60;;;;;;;;;;5032027;28;20107;-46
2022/01/22 02:01:51;;;;;;;1.38;0.68;;;;;;;;;;5031506;28;20116;-46
2022/01/22 02:04:17;;;;;;;2.25;1.00;;;;;;;;;;5031684;28;20033;-45
2022/01/22 02:06:43;;;;;;;1.65;0.57;;;;;;;;;;5031706;28;20053;-46
2022/01/22 02:09:10;;;;;;;1.40;0.85;;;;;;;;;;5031706;28;20041;-46
2022/01/22 02:11:37;;;;;;;1.35;0.80;;;;;;;;;;5031742;28;20022;-47
2022/01/22 02:14:10;;;;;;;1.50;0.93;;;;;;;;;;5034509;28;20032;-46
2022/01/22 02:24:55;;;;;;;2.05;0.80;;;15.60;89.20;;;;;;5035310;28;20523;-46
2022/01/22 02:27:22;;;;;;;2.22;1.00;;;;;;;;;;5035112;28;20476;-45
2022/01/22 02:29:48;;;;;;;1.77;0.80;;;;;;;;;;5035078;28;20494;-46
2022/01/22 02:37:43;;;;;;;2.28;0.70;;;;;;;;;;5035214;28;20482;-45
2022/01/22 02:40:20;;;;;;;2.40;0.80;;;;;;;;;;5034901;28;20108;-47
2022/01/22 02:42:46;;;;;;;3.78;1.20;;;;;;;;;;5034850;28;20060;-46
2022/01/22 02:45:18;;;;;;;1.00;0.70;;;;;;;;;;5034989;28;20040;-46
2022/01/22 02:47:44;;;;;;;1.80;1.10;;;;;;;;;;5034830;28;20080;-47
2022/01/22 02:50:10;;;;;;;2.15;0.70;;;;;;;;;;5034803;28;20061;-46
2022/01/22 02:52:36;;;;;;;1.48;0.95;;;;;;;;;;5034597;28;20087;-46
2022/01/22 02:55:06;;;;;;;1.40;0.90;;;15.50;91.40;;;;;;5034619;28;20033;-47
2022/01/22 02:57:32;;;;;;;2.05;0.57;;;;;;;;;;5034918;28;20488;-46
2022/01/22 03:00:00;;;;;;;2.20;0.85;;;;;;;;;;5034817;28;20037;-45
2022/01/22 03:02:26;;;;;;;2.58;0.85;;;;;;;;;;5034192;28;20099;-45
2022/01/22 03:04:52;;;;;;;0.90;0.73;;;;;;;;;;5034379;28;20034;-46
2022/01/22 03:07:18;;;;;;;2.45;0.88;;;;;;;;;;5034458;28;20032;-45
2022/01/22 03:09:46;;;;;;;2.85;0.75;;;;;;;;;;5034282;28;20029;-46
2022/01/22 03:17:54;;;;;;;0.80;0.65;;;;;;;;;;5034721;28;20029;-46
2022/01/22 03:20:38;;;;;;;1.83;0.73;;;;;;;;;;5034121;28;20491;-45
2022/01/22 03:28:51;;;;;;;1.95;0.77;;;;;;;;;;5033996;28;20079;-45
2022/01/22 03:31:17;;;;;;;1.83;0.93;;;;;;;;;;5034213;28;20072;-45
2022/01/22 03:33:43;;;;;;;2.20;0.85;;;;;;;;;;5034135;28;20029;-46
2022/01/22 03:36:11;;;;;;;3.67;0.90;;;;;;;;;;5033816;28;20487;-45
2022/01/22 03:38:37;;;;;;;0.93;0.82;;;;;;;;;;5034024;28;20051;-46
2022/01/22 03:41:03;;;;;;;2.17;1.00;;;;;;;;;;5033666;28;20464;-46
2022/01/22 03:43:29;;;;;;;1.85;0.80;;;;;;;;;;5033725;28;20025;-46
2022/01/22 03:45:55;;;;;;;2.53;0.80;;;;;;;;;;5033850;28;20404;-45
2022/01/22 03:48:21;;;;;;;0.98;0.60;;;;;;;;;;5033536;28;20083;-45
2022/01/22 03:50:49;;;;;;;2.60;0.85;;;;;;;;;;5033760;28;20420;-46
2022/01/22 03:53:15;;;;;;;2.20;0.85;;;;;;;;;;5033464;28;20395;-45
2022/01/22 03:58:07;;;;;;;2.45;1.10;;;;;;;;;;5033306;28;20037;-45
2022/01/22 04:00:33;;;;;;;2.33;1.08;;;;;;;;;;5033312;28;20043;-45
2022/01/22 04:06:48;;;;;;;2.67;0.90;;;;;;;;;;5020972;28;20448;-45
2022/01/22 04:08:45;;;;;;;2.45;0.90;;;;;;;;;;5032820;28;20144;-45
2022/01/22 04:11:15;;;;;;;1.48;0.77;;;;;;;;;;5033126;28;20080;-45
2022/01/22 04:13:42;;;;;;;2.17;1.00;;;;;;;;;;5033107;28;20476;-46
2022/01/22 04:16:09;;;;;;;2.88;1.20;;;;;;;;;;5032996;28;20431;-45
2022/01/22 04:26:58;;;;;;;1.77;0.90;;;;;;;;;;5032903;28;20056;-45
2022/01/22 04:29:25;;;;;;;1.60;0.80;;;;;;;;;;5032895;28;20026;-45
2022/01/22 04:31:51;;;;;;;1.27;0.73;;;;;;;;;;5032732;28;20022;-45
2022/01/22 04:34:17;;;;;;;1.65;0.80;;;;;;;;;;5032692;28;20026;-45
2022/01/22 04:36:43;;;;;;;1.75;0.52;;;;;;;;;;5032033;28;20057;-45
2022/01/22 04:39:10;;;;;;;1.50;0.80;;;15.10;91.00;;;;;;5032587;28;20057;-46
2022/01/22 04:41:36;;;;;;;1.15;0.73;;;;;;;;;;5032650;28;20387;-45
2022/01/22 04:44:04;;;;;;;2.05;0.70;;;;;;;;;;5032567;28;20472;-46
2022/01/22 04:52:26;;;;;;;3.75;0.90;;;;;;;;;;5032497;28;20094;-46
2022/01/22 04:55:01;;;;;;;2.75;0.70;;;;;;;;;;5032491;28;20036;-45
2022/01/22 04:57:33;;;;;;;2.58;0.95;;;15.10;90.90;;;;;;5032484;28;20144;-45
2022/01/22 04:59:59;;;;;;;1.65;0.80;;;;;;;;;;5031210;28;20468;-45
2022/01/22 05:02:25;;;;;;;2.65;0.75;;;;;;;;;;5032018;28;20088;-45
2022/01/22 05:04:51;;;;;;;1.23;0.90;;;;;;;;;;5032221;28;20572;-45
2022/01/22 05:07:17;;;;;;;1.98;0.95;;;;;;;;;;5032201;28;20044;-45
2022/01/22 05:09:43;;;;;;;1.05;0.52;;;;;;;;;;5032292;28;20033;-45
2022/01/22 05:12:10;;;;;;;2.72;0.80;;;;;;;;;;5032224;28;20052;-45
2022/01/22 05:14:36;;;;;;;1.75;0.98;;;;;;;;;;5032276;28;20108;-45
2022/01/22 05:17:04;;;;;;;1.30;0.60;;;;;;;;;;5032289;28;20052;-45
2022/01/22 05:22:16;;;;;;;1.23;0.60;;;;;;;;;;5032405;28;20037;-46
2022/01/22 05:24:47;;;;;;;2.25;0.60;;;;;;;;;;5032121;28;20037;-47
2022/01/22 05:27:35;;;;;;;0.90;0.47;;;;;;;;;;5032371;28;20092;-45
2022/01/22 05:30:10;;;;;;;3.22;0.70;;;;;;;;;;5032181;28;20021;-46
2022/01/22 05:37:46;;;;;;;3.03;0.80;;;;;;;;;;5032352;28;20112;-46
2022/01/22 05:40:12;;;;;;;1.30;0.60;;;;;;;;;;5031977;28;20064;-46
2022/01/22 05:42:38;;;;;;;1.27;0.65;;;;;;;;;;5031979;28;20045;-46
2022/01/22 05:45:06;;;;;;;1.73;0.50;;;15.00;91.20;;;;;;5031925;28;20484;-45
2022/01/22 05:47:32;;;;;;;1.83;0.57;;;;;;;;;;5034324;28;20013;-45
2022/01/22 05:50:00;;;;;;;2.58;0.68;;;;;;;;;;5035860;28;20476;-46
2022/01/22 05:52:36;;;;;;;1.23;0.60;;;;;;;;;;5036029;28;20025;-45
2022/01/22 06:00:14;;;;;;;1.23;0.70;;;;;;;;;;5035825;28;20167;-45
2022/01/22 06:02:40;;;;;;;1.27;0.75;;;;;;;;;;5035094;28;20049;-45
2022/01/22 06:05:06;;;;;;;1.65;0.90;;;;;;;;;;5035435;28;20044;-46
2022/01/22 06:07:32;;;;;;;1.77;0.65;;;;;;;;;;5035366;28;20029;-45
2022/01/22 06:15:08;;;;;;;2.88;0.70;;;;;;;;;;5035612;28;20087;-46
2022/01/22 06:17:34;;;;;;;1.65;0.52;;;;;;;;;;5035267;28;20036;-46
2022/01/22 06:20:00;;;;;;;2.30;0.75;;;;;;;;;;5035284;28;20029;-45
2022/01/22 06:22:26;;;;;;;1.60;0.70;;;;;;;;;;5035209;28;20026;-45
2022/01/22 06:24:52;;;;;;;4.28;0.70;;;;;;;;;;5035142;28;20039;-45
2022/01/22 06:27:18;;;;;;;1.95;0.50;;;;;;;;;;5035432;28;20060;-45
2022/01/22 06:29:44;;;;;;;2.40;0.57;;;;;;;;;;5035139;28;20033;-45
2022/01/22 06:32:10;;;;;;;7.53;0.70;;;;;;;;;;5035113;28;20539;-46
2022/01/22 06:34:36;;;;;;;0.65;0.47;;;;;;;;;;5035015;28;20033;-45
2022/01/22 06:37:02;;;;;;;2.53;0.77;;;;;;;;;;5034915;28;20109;-45
2022/01/22 06:39:29;;;;;;;1.40;0.65;;;;;;;;;;5034871;28;20167;-45
2022/01/22 06:41:55;;;;;;;1.75;0.93;;;;;;;;;;5034905;28;20030;-45
2022/01/22 06:44:24;;;;;;;2.22;0.52;;;16.10;90.00;;;;;;5034723;28;20030;-45
2022/01/22 06:46:53;;;;;;;3.33;0.93;;;16.20;89.90;;;;;;5034878;28;20484;-46
2022/01/22 06:49:20;;;;;;;1.38;0.35;;;;;;;;;;5035094;28;20025;-46
2022/01/22 06:51:46;;;;;;;1.67;0.52;;;;;;;;;;5034675;28;20040;-46
2022/01/22 06:54:13;;;;;;;1.52;0.75;;;;;;;;;;5034679;28;20025;-46
2022/01/22 06:56:40;;;;;;;1.17;0.52;;;;;;;;;;5034605;28;20024;-46
2022/01/22 06:59:08;;;;;;;1.50;0.68;;;16.20;89.80;;;;;;5033851;28;20025;-46
2022/01/22 07:01:34;;;;;;;1.05;0.50;;;;;;;;;;5034361;28;20141;-45
2022/01/22 07:04:00;;;;;;;2.00;0.60;;;;;;;;;;5034332;28;20077;-45
2022/01/22 07:06:27;;;;;;;1.42;0.50;;;;;;;;;;5034482;28;20087;-45
2022/01/22 07:08:53;;;;;;;1.23;0.50;;;;;;;;;;5034352;28;20021;-46
2022/01/22 07:11:19;;;;;;;0.73;0.47;;;;;;;;;;5034310;28;20155;-45
2022/01/22 07:13:45;;;;;;;2.65;0.63;;;;;;;;;;5034187;28;20059;-45
2022/01/22 07:16:11;;;;;;;1.05;0.60;;;;;;;;;;5034228;28;20028;-45
2022/01/22 07:18:38;;;;;;;1.17;0.43;;;;;;;;;;5034097;28;20104;-45
2022/01/22 07:21:13;;;;;;;1.67;0.80;;;;;;;;;;5034153;28;20521;-45
2022/01/22 07:26:15;;;;;;;0.98;0.40;;;;;;;;;;5034301;28;20052;-45
2022/01/22 07:28:41;;;;;;;1.35;0.40;;;;;;;;;;5033922;28;20029;-45
2022/01/22 07:31:08;;;;;;;1.70;0.73;;;16.00;90.30;;;;;;5033919;28;20112;-46
2022/01/22 07:33:34;;;;;;;2.22;0.75;;;;;;;;;;5033906;28;20018;-46
2022/01/22 07:36:00;;;;;;;1.45;0.57;;;;;;;;;;5034067;28;20388;-46
2022/01/22 07:38:26;;;;;;;1.10;0.40;;;;;;;;;;5034039;28;20111;-47
2022/01/22 07:40:52;;;;;;;0.43;0.40;;;;;;;;;;5033693;28;20034;-45
2022/01/22 07:43:19;;;;;;;3.50;0.60;;;;;;;;;;5033787;28;20024;-45
2022/01/22 07:45:45;;;;;;;1.80;0.60;;;;;;;;;;5033606;28;20124;-45
2022/01/22 07:48:11;;;;;;;4.78;0.70;;;;;;;;;;5033607;28;20025;-46
2022/01/22 07:50:37;;;;;;;1.48;0.50;;;;;;;;;;5033611;28;20025;-45
2022/01/22 07:53:03;;;;;;;1.33;0.47;;;;;;;;;;5033542;28;20057;-45
2022/01/22 07:55:29;;;;;;;2.92;0.65;;;15.80;87.50;;;;;;5033596;28;20025;-45
2022/01/22 07:57:55;;;;;;;2.53;0.60;;;;;;;;;;5033392;28;20076;-45
2022/01/22 08:00:21;;;;;;;1.45;0.80;;;;;;;;;;5033393;28;20100;-45
2022/01/22 08:02:47;;;;;;;1.30;0.68;;;;;;;;;;5033073;28;20092;-45
2022/01/22 08:05:13;;;;;;;1.67;0.70;;;;;;;;;;5033253;28;20120;-45
2022/01/22 08:07:44;;;;;;;1.73;0.50;;;;;;;;;;5033211;28;20068;-45
2022/01/22 08:10:10;;;;;;;1.02;0.60;;;;;;;;;;5032337;28;20372;-46
2022/01/22 08:12:41;;;;;;;1.80;0.60;;;;;;;;;;5033055;28;20057;-45
2022/01/22 08:15:08;;;;;;;2.97;0.80;;;15.60;91.30;;;;;;5033240;28;20120;-45
2022/01/22 08:17:35;;;;;;;1.90;0.68;;;;;;;;;;5033060;28;20140;-45
2022/01/22 08:20:01;;;;;;;1.13;0.60;;;;;;;;;;5033219;28;20393;-45
2022/01/22 08:22:27;;;;;;;1.70;0.75;;;;;;;;;;5033004;28;20029;-52
2022/01/22 08:24:54;;;;;;;1.95;0.70;;;;;;;;;;5032824;28;20040;-45
2022/01/22 08:27:35;;;;;;;1.63;0.70;;;;;;;;;;5032913;28;20479;-45
2022/01/22 08:30:01;;;;;;;1.10;0.43;;;;;;;;;;5033193;28;20317;-45
2022/01/22 08:37:38;;;;;;;1.02;0.70;;;;;;;;;;5032817;28;20506;-44
2022/01/22 08:40:04;;;;;;;1.48;0.80;;;15.50;91.20;;;;;;5032799;28;20098;-45
2022/01/22 08:42:30;;;;;;;1.75;0.80;;;;;;;;;;5032622;28;20021;-45
2022/01/22 08:44:56;;;;;;;1.58;0.80;;;;;;;;;;5032491;28;20047;-45
2022/01/22 08:47:22;;;;;;;0.80;0.65;;;;;;;;;;5032592;28;20029;-45
2022/01/22 08:49:48;;;;;;;1.98;1.00;;;;;;;;;;5032537;28;20025;-44
2022/01/22 08:52:16;;;;;;;2.40;0.82;;;;;;;;;;5032703;28;20030;-45
2022/01/22 08:54:43;;;;;;;5.22;1.00;;;;;;;;;;5032429;28;20029;-45
2022/01/22 08:57:09;;;;;;;2.35;0.60;;;;;;;;;;5032487;28;20055;-45
2022/01/22 08:59:35;;;;;;;2.40;0.95;;;;;;;;;;5032397;28;20038;-45
2022/01/22 09:02:01;;;;;;;1.38;0.77;;;;;;;;;;5032070;28;20072;-45
2022/01/22 09:04:27;;;;;;;1.95;0.80;;;;;;;;;;5032195;28;20026;-44
2022/01/22 09:06:53;;;;;;;2.78;0.77;;;;;;;;;;5032342;28;20029;-44
2022/01/22 09:09:19;;;;;;;1.95;0.80;;;;;;;;;;5032262;28;20515;-44
2022/01/22 09:11:46;;;;;;;4.35;1.38;;;16.00;87.50;;;;;;5032278;28;20079;-44
2022/01/22 09:14:14;;;;;;;2.85;0.80;;;16.10;90.40;;;;;;5032020;28;20030;-45
2022/01/22 09:16:41;;;;;;;2.08;0.60;;;;;;;;;;5032150;28;20057;-44
2022/01/22 09:19:10;;;;;;;1.23;0.60;;;16.20;90.20;;;;;;5031930;28;20034;-44
2022/01/22 09:21:37;;;;;;;5.53;1.03;;;;;;;;;;5032644;28;20059;-44
2022/01/22 09:24:04;;;;;;;1.67;0.85;;;;;;;;;;5036111;28;20033;-44
2022/01/22 09:26:30;;;;;;;4.63;1.17;;;;;;;;;;5036341;28;20060;-44
2022/01/22 09:28:58;;;;;;;1.75;0.70;;;16.60;89.60;;;;;;5036102;28;20057;-44
2022/01/22 09:31:25;;;;;;;2.25;0.80;;;;;;;;;;5036108;28;20060;-44
2022/01/22 09:33:51;;;;;;;2.13;0.80;;;;;;;;;;5036462;28;20021;-44
2022/01/22 09:36:17;;;;;;;1.63;0.60;;;;;;;;;;5036016;28;20030;-44
2022/01/22 09:38:43;;;;;;;1.85;1.17;;;;;;;;;;5035968;28;20032;-44
2022/01/22 09:41:09;;;;;;;1.60;0.70;;;;;;;;;;5036016;28;20029;-44
2022/01/22 09:43:35;;;;;;;0.80;0.50;;;;;;;;;;5035756;28;20033;-45
2022/01/22 09:46:01;;;;;;;1.60;0.98;;;;;;;;;;5035711;28;20037;-45
2022/01/22 09:48:27;;;;;;;9.18;1.27;;;;;;;;;;5035594;28;20025;-45
2022/01/22 09:50:53;;;;;;;2.70;0.82;;;;;;;;;;5035737;28;20036;-44
2022/01/22 09:53:19;;;;;;;2.97;0.95;;;;;;;;;;5035554;28;20026;-45
2022/01/22 09:55:45;;;;;;;7.28;0.82;;;;;;;;;;5035919;28;20034;-46
2022/01/22 09:58:11;;;;;;;4.88;1.08;;;;;;;;;;5035494;28;20021;-44
2022/01/22 10:00:38;;;;;;;6.45;1.00;;;;;;;;;;5035836;28;20148;-45
2022/01/22 10:03:16;;;;;;;8.25;0.80;;;17.10;89.00;;;;;;5035444;28;20057;-45
2022/01/22 10:05:42;;;;;;;4.20;1.17;;;;;;;;;;5035596;28;20551;-45
2022/01/22 10:08:18;;;;;;;7.05;1.30;;;17.20;82.80;;;;;;5035481;28;20109;-45
2022/01/22 10:10:44;;;;;;;7.25;1.13;;;;;;;;;;5035393;28;20046;-45
2022/01/22 10:13:10;;;;;;;2.88;0.90;;;;;;;;;;5035485;28;20030;-45
2022/01/22 10:15:38;;;;;;;3.03;0.98;;;;;;;;;;5035242;28;20029;-45
2022/01/22 10:18:04;;;;;;;3.45;0.82;;;;;;;;;;5035048;28;20532;-45
2022/01/22 10:20:40;;;;;;;5.15;0.98;;;17.00;82.80;;;;;;5034957;28;20104;-45
2022/01/22 10:23:19;;;;;;;2.13;0.75;;;17.00;82.60;;;;;;5035105;28;20041;-46
2022/01/22 10:25:55;;;;;;;3.83;1.15;;;17.00;88.10;;;;;;5035056;28;20110;-46
2022/01/22 10:28:22;;;;;;;3.53;1.10;;;;;;;;;;5035185;28;20049;-44
2022/01/22 10:30:56;;;;;;;8.05;1.30;;;16.90;88.60;;;;;;5035422;28;20037;-46
2022/01/22 10:36:06;;;;;;;4.72;1.25;;;16.60;87.10;;;;;;5035118;28;20437;-50
2022/01/22 10:38:45;;;;;;;4.00;1.17;;;16.90;82.40;;;;;;5035297;28;20091;-44
2022/01/22 10:41:13;;;;;;;12.05;1.95;;;16.90;88.90;;;;;;5035264;28;20099;-45
2022/01/22 10:43:47;;;;;;;4.85;1.48;;;16.80;88.80;;;;;;5035131;28;20017;-44
2022/01/22 10:46:31;;;;;;;3.50;1.40;;;16.90;88.90;;;;;;5034985;28;20442;-44
2022/01/22 10:48:58;;;;;;;3.35;1.10;;;17.00;88.90;;;;;;5034901;28;20067;-44
2022/01/22 10:51:25;;;;;;;3.13;1.15;;;;;;;;;;5034720;28;20108;-46
2022/01/22 10:53:58;;;;;;;4.05;1.40;;;17.00;88.90;;;;;;5034653;28;20052;-43
2022/01/22 10:56:29;;;;;;;2.53;1.00;;;16.90;86.20;;;;;;5034697;28;20029;-47
2022/01/22 10:59:02;;;;;;;3.22;1.20;;;16.90;82.40;;;;;;5034651;28;20098;-46
2022/01/22 11:01:28;;;;;;;4.50;1.17;;;;;;;;;;5034571;28;20518;-46
2022/01/22 11:04:05;;;;;;;1.95;1.10;;;17.00;82.30;;;;;;5034310;28;20049;-46
2022/01/22 11:06:31;;;;;;;5.45;1.20;;;;;;;;;;5034459;28;20052;-47
2022/01/22 11:08:57;;;;;;;3.00;1.38;;;;;;;;;;5034360;28;20396;-45
2022/01/22 11:11:24;;;;;;;6.35;1.25;;;;;;;;;;5034392;28;20540;-45
2022/01/22 11:13:50;;;;;;;3.85;1.30;;;;;;;;;;5034467;28;20017;-45
2022/01/22 11:16:17;;;;;;;4.50;1.33;;;16.90;89.20;;;;;;5034184;28;20480;-44
2022/01/22 11:18:49;;;;;;;4.35;1.15;;;16.80;88.80;;;;;;5034192;28;20021;-45
2022/01/22 11:21:15;;;;;;;2.17;1.10;;;;;;;;;;5034192;28;20025;-45
2022/01/22 11:23:43;;;;;;;4.85;1.25;;;16.90;89.40;;;;;;5033866;28;20040;-44
2022/01/22 11:26:09;;;;;;;3.20;1.25;;;;;;;;;;5034011;28;20075;-45
2022/01/22 11:28:38;;;;;;;3.45;1.13;;;16.90;89.30;;;;;;5033903;28;20067;-45
2022/01/22 11:31:04;;;;;;;3.35;1.30;;;16.90;89.40;;;;;;5034284;28;20388;-45
2022/01/22 11:33:32;;;;;;;3.10;0.90;;;16.80;89.20;;;;;;5033998;28;20032;-45
2022/01/22 11:36:04;;;;;;;2.53;1.08;;;16.90;89.50;;;;;;5033954;28;20037;-45
2022/01/22 11:38:37;;;;;;;2.95;1.08;;;16.80;89.40;;;;;;5033840;28;20488;-45
2022/01/22 11:41:18;;;;;;;1.80;1.00;;;16.80;89.40;;;;;;5033753;28;20090;-46
2022/01/22 11:46:40;;;;;;;3.70;1.45;;;16.80;89.20;;;;;;5033348;28;20037;-46
2022/01/22 11:49:17;;;;;;;1.98;1.13;;;16.90;82.30;;;;;;5033463;28;20049;-46
2022/01/22 11:52:04;;;;;;;2.72;1.10;;;16.90;89.20;;;;;;5032091;28;20587;-46
2022/01/22 11:54:52;;;;;;;5.68;1.27;;;16.90;89.40;;;;;;5033042;28;20033;-46
2022/01/22 11:57:18;;;;;;;4.15;1.48;;;;;;;;;;5033287;28;20109;-46
2022/01/22 11:59:46;;;;;;;2.42;1.33;;;16.90;86.60;;;;;;5033592;28;20033;-46
2022/01/22 12:02:16;;;;;;;2.78;1.30;;;16.90;88.90;;;;;;5033175;28;20107;-44
2022/01/22 12:04:42;;;;;;;2.45;1.20;;;;;;;;;;5033436;28;20095;-44
2022/01/22 12:07:08;;;;;;;2.40;1.33;;;;;;;;;;5033400;28;20483;-44
2022/01/22 12:15:12;;;;;;;4.70;1.42;;;16.80;88.80;;;;;;5033294;28;20083;-45
2022/01/22 12:17:47;;;;;;;4.13;1.60;;;16.90;83.00;;;;;;5033174;28;20101;-45
2022/01/22 12:23:12;;;;;;;2.20;1.27;;;16.90;83.90;;;;;;5033309;28;20035;-45
2022/01/22 12:25:38;;;;;;;2.17;1.27;;;;;;;;;;5032937;28;20087;-45
2022/01/22 12:28:05;;;;;;;2.22;1.50;;;;;;;;;;5032902;28;20029;-46
2022/01/22 12:30:48;;;;;;;3.80;1.50;;;16.90;87.30;;;;;;5032828;28;20030;-45
2022/01/22 12:33:16;;;;;;;4.05;1.70;;;16.90;92.60;;;;;;5032749;28;20017;-44
2022/01/22 12:35:47;;;;;;;5.00;1.73;;;16.90;90.10;;;;;;5032832;28;20388;-45
2022/01/22 12:38:37;;;;;;;2.78;1.77;;;16.80;89.80;;;;;;5032837;28;20022;-44
2022/01/22 12:44:27;;;;;;;3.83;1.63;;;16.60;93.00;;;;;;5032787;28;20021;-44
2022/01/22 12:46:58;;;;;;;2.38;1.40;;;16.70;90.20;;;;;;5032993;28;20069;-48
2022/01/22 12:49:25;;;;;;;3.15;1.58;;;16.80;92.20;;;;;;5032553;28;20029;-47
2022/01/22 12:51:58;;;;;;;2.53;1.58;;;16.70;90.20;;;;;;5032593;28;20110;-46
2022/01/22 12:54:36;;;;;;;4.05;1.30;;;16.80;93.20;;;;;;5032590;28;20383;-45
2022/01/22 12:57:10;;;;;;;1.83;1.63;;;16.70;92.30;;;;;;5030906;28;20030;-46
2022/01/22 12:59:48;;;;;;;3.08;1.88;;;16.70;90.40;;;;;;5032415;28;20089;-45
2022/01/22 13:02:14;;;;;;;3.17;1.65;;;;;;;;;;5032095;28;20515;-45
2022/01/22 13:04:40;;;;;;;1.80;1.40;;;;;;;;;;5032454;28;20037;-45
2022/01/22 13:07:11;;;;;;;1.63;1.42;;;16.80;93.50;;;;;;5032571;28;20033;-46
2022/01/22 13:09:47;;;;;;;3.85;1.40;;;16.80;90.90;;;;;;5032354;28;20032;-48
2022/01/22 13:12:14;;;;;;;2.20;1.40;;;;;;;;;;5032392;28;20488;-46
2022/01/22 13:14:40;;;;;;;2.40;1.50;;;;;;;;;;5032614;28;20021;-45
2022/01/22 13:17:13;;;;;;;3.42;1.45;;;16.80;93.90;;;;;;5032000;28;20511;-47
2022/01/22 13:19:39;;;;;;;2.58;1.40;;;16.90;92.20;;;;;;5032097;28;20031;-47
2022/01/22 13:22:06;;;;;;;1.67;1.10;;;;;;;;;;5032301;28;20037;-46
2022/01/22 13:24:32;;;;;;;3.38;1.48;;;17.10;93.20;;;;;;5031737;28;20075;-46
2022/01/22 13:27:08;;;;;;;1.58;1.42;;;17.20;93.90;;;;;;5031958;28;20038;-45
2022/01/22 13:29:37;;;;;;;3.83;1.45;;;;;;;;;;5032294;28;20128;-44
2022/01/22 13:35:52;;;;;;;2.00;1.48;;;17.30;91.00;;;;;;5032457;28;20306;-49
2022/01/22 13:49:26;;;;;;;2.75;1.50;;;17.50;93.20;;;;;;5032048;28;20040;-47
2022/01/22 13:51:54;;;;;;;1.63;1.10;;;17.50;93.60;;;;;;5031951;28;20068;-45
2022/01/22 13:54:27;;;;;;;1.58;1.20;;;17.50;93.60;;;;;;5031758;28;20057;-46
2022/01/22 13:56:56;;;;;;;2.33;1.60;;;;;;;;;;5031776;28;20030;-45
2022/01/22 13:59:33;;;;;;;1.67;1.27;;;17.40;93.40;;;;;;5031836;28;20029;-44
2022/01/22 14:02:33;;;;;;;4.00;2.13;;;17.50;90.60;;;;;;5031549;28;20453;-45
2022/01/22 14:05:09;;;;;;;1.88;1.52;;;17.40;90.60;;;;;;5032117;28;20036;-45
2022/01/22 14:07:44;;;;;;;2.15;1.20;;;17.30;93.40;;;;;;5032645;28;20067;-45
2022/01/22 14:10:14;;;;;;;1.40;1.23;;;17.40;90.50;;;;;;5035645;28;20029;-46
2022/01/22 14:12:42;;;;;;;2.25;1.02;;;;;;;;;;5035464;28;20428;-45
2022/01/22 14:15:17;;;;;;;1.13;1.00;;;17.50;90.50;;;;;;5035990;28;20345;-46
2022/01/22 14:20:53;;;;;;;1.40;1.30;;;17.40;93.50;;;;;;5035588;28;20033;-44
2022/01/22 14:23:19;;;;;;;3.33;1.13;;;;;;;;;;5035257;28;20087;-45
2022/01/22 14:26:03;;;;;;;1.40;1.30;;;17.30;90.20;;;;;;5035364;28;20072;-45
2022/01/22 14:28:44;;;;;;;1.63;1.20;;;17.40;90.30;;;;;;5035233;28;20029;-45
2022/01/22 14:31:23;;;;;;;1.73;1.30;;;17.50;90.30;;;;;;5035113;28;20037;-44
2022/01/22 14:33:49;;;;;;;1.17;0.90;;;;;;;;;;5035157;28;20124;-45
2022/01/22 14:36:18;;;;;;;1.30;1.20;;;17.40;93.10;;;;;;5034949;28;20099;-44
2022/01/22 14:38:57;;;;;;;2.33;0.90;;;;;;;;;;5035005;28;20029;-45
2022/01/22 14:46:57;;;;;;;2.15;1.20;;;17.30;90.10;;;;;;5035067;28;20134;-45
2022/01/22 14:49:32;;;;;;;0.93;0.80;;;17.30;93.00;;;;;;5034800;28;20022;-44
2022/01/22 14:51:59;;;;;;;1.10;1.00;;;17.20;92.60;;;;;;5034706;28;20030;-44
2022/01/22 14:54:26;;;;;;;1.13;1.02;;;17.30;91.40;;;;;;5035034;28;20431;-44
2022/01/22 14:56:52;;;;;;;2.10;1.15;;;;;;;;;;5034638;28;20480;-46
2022/01/22 14:59:19;;;;;;;1.73;1.30;;;17.30;93.00;;;;;;5034572;28;20026;-45
2022/01/22 15:01:45;;;;;;;1.30;1.20;;;;;;;;;;5034682;28;20029;-44
2022/01/22 15:04:11;;;;;;;1.67;1.25;;;;;;;;;;5034319;28;20060;-44
2022/01/22 15:06:37;;;;;;;1.52;1.20;;;;;;;;;;5034377;28;20529;-45
2022/01/22 15:09:05;;;;;;;0.80;0.80;;;;;;;;;;5034369;28;20496;-44
2022/01/22 15:11:33;;;;;;;2.45;1.58;;;;;;;;;;5034531;28;20029;-45
2022/01/22 15:14:01;;;;;;;1.30;1.10;;;;;;;;;;5034253;28;20021;-45
2022/01/22 15:16:34;;;;;;;1.23;1.00;;;;;;;;;;5034402;28;20033;-46
2022/01/22 15:19:03;;;;;;;1.13;1.02;;;;;;;;;;5034246;28;20052;-45
2022/01/22 15:21:29;;;;;;;3.03;1.55;;;;;;;;;;5034153;28;20108;-45
2022/01/22 15:23:55;;;;;;;1.45;0.80;;;17.10;92.20;;;;;;5034166;28;20051;-45
2022/01/22 15:26:22;;;;;;;0.90;0.90;;;;;;;;;;5034243;28;20392;-45
2022/01/22 15:28:48;;;;;;;1.35;1.05;;;;;;;;;;5034017;28;20468;-43
2022/01/22 15:31:28;;;;;;;2.03;1.05;;;17.00;92.80;;;;;;5033964;28;20545;-44
2022/01/22 15:34:06;;;;;;;1.50;0.98;;;17.00;92.80;;;;;;5034210;28;20075;-45
2022/01/22 15:36:32;;;;;;;1.77;0.90;;;;;;;;;;5033905;28;20026;-46
2022/01/22 15:38:58;;;;;;;1.83;1.10;;;;;;;;;;5033882;28;20160;-45
2022/01/22 15:41:24;;;;;;;1.25;1.10;;;;;;;;;;5033886;28;20526;-46
2022/01/22 15:43:50;;;;;;;3.17;0.90;;;;;;;;;;5033771;28;20041;-46
2022/01/22 15:46:16;;;;;;;1.65;1.08;;;;;;;;;;5033841;28;20041;-46
2022/01/22 15:48:43;;;;;;;1.23;1.00;;;;;;;;;;5033624;28;20025;-44
2022/01/22 15:51:10;;;;;;;2.33;1.23;;;;;;;;;;5033862;28;20388;-43
2022/01/22 15:53:36;;;;;;;2.80;1.23;;;;;;;;;;5033524;28;20021;-43
2022/01/22 15:56:02;;;;;;;1.30;1.10;;;;;;;;;;5033335;28;20030;-44
2022/01/22 15:58:29;;;;;;;1.75;1.10;;;;;;;;;;5033144;28;20068;-43
2022/01/22 16:00:55;;;;;;;1.92;1.20;;;;;;;;;;5033287;28;20463;-44
2022/01/22 16:03:24;;;;;;;1.45;1.20;;;;;;;;;;5032935;28;20172;-43
2022/01/22 16:05:50;;;;;;;4.25;1.50;;;;;;;;;;5033490;28;20044;-44
2022/01/22 16:08:16;;;;;;;1.77;1.30;;;;;;;;;;5033534;28;20026;-43
2022/01/22 16:10:42;;;;;;;2.80;2.25;;;;;;;;;;5033217;28;20055;-44
2022/01/22 16:13:08;;;;;;;2.78;1.30;;;;;;;;;;5033394;28;20024;-44
2022/01/22 16:15:33;;;;;;;1.63;1.40;;;;;;;;;;5033180;28;20033;-43
2022/01/22 16:17:59;;;;;;;2.53;1.20;;;;;;;;;;5033137;28;20431;-44
2022/01/22 16:20:26;;;;;;;1.65;1.40;;;;;;;;;;5033290;28;20048;-44
2022/01/22 16:22:52;;;;;;;2.25;1.63;;;;;;;;;;5032876;28;20067;-44
2022/01/22 16:25:19;;;;;;;1.85;1.50;;;;;;;;;;5032653;28;20488;-43
2022/01/22 16:27:45;;;;;;;2.33;1.33;;;;;;;;;;5032725;28;20052;-44
2022/01/22 16:30:11;;;;;;;2.03;1.27;;;;;;;;;;5032704;28;20057;-43
2022/01/22 16:32:37;;;;;;;1.67;1.30;;;;;;;;;;5031798;28;20037;-44
2022/01/22 16:35:03;;;;;;;1.38;1.27;;;;;;;;;;5032659;28;20029;-45